Klawock Airport Klawock US
ICAO: PAKW
IATA:
Category: Medium
Scheduled Services:

Elevation: 80 ft
TransAlt. 18000 ft.

Airport Communications:
ASOS:135.45
ANCHORAGE CNTR:118.5
CTAF:120.9
KETCHIKAN RDO:122.25

PAKW Zoom In..

If Map Doesn't Load, Click Here

Runways:

(A) RW 02 length 5000 ft width 100 ft
---- / hdg 19

(B) RW 20 length 5000 ft width 100 ft
---- / hdg 199

Location; PAKW
Day. 21 / Time. 15.19 Zulu
* Altimeter: 29.96
* Temperature: 03° c. 37.4°f.
* Wind from: 000° Speed 00 kn.
Dewpoint: 03° c.
Visibility: 5 Statute Miles.
Clouds: Few 100 ft.
Conditions: Mist.

PAKW 211519Z AUTO 00000KT 5SM BR FEW001 03/03 A2996 RMK AO2 T00330028 TSNO


Wind - Calm.

 
 
jpsmedia.com for Web Design worldairports.se 2018   terms of use